Time,TemperatureF,DewpointF,PressureIn,WindDirection,WindDirectionDegrees,WindSpeedMPH,WindSpeedGustMPH,Humidity,HourlyPrecipIn,Conditions,Clouds,dailyrainin,SolarRadiationWatts/m^2,SoftwareType,DateUTC
2013-06-14 00:08:00,51.9,36.0,29.50,West,265,1.0,10.0,56,0.00,,,0.04,0,weatherlink.com 1.10,2013-06-14 06:08:00,
2013-06-14 00:23:00,52.0,35.0,29.50,WSW,248,0.0,6.0,53,0.00,,,0.00,0,weatherlink.com 1.10,2013-06-14 06:23:00,
2013-06-14 00:38:00,51.9,36.0,29.50,West,259,0.0,3.0,55,0.00,,,0.00,0,weatherlink.com 1.10,2013-06-14 06:38:00,
2013-06-14 00:53:00,52.2,34.0,29.49,South,174,1.0,6.0,50,0.00,,,0.00,0,weatherlink.com 1.10,2013-06-14 06:53:00,
2013-06-14 01:24:00,52.8,33.0,29.45,SSE,153,5.0,7.0,48,0.00,,,0.00,0,weatherlink.com 1.10,2013-06-14 07:24:00,
2013-06-14 01:39:00,52.8,33.0,29.44,WSW,238,1.0,8.0,47,0.00,,,0.00,0,weatherlink.com 1.10,2013-06-14 07:39:00,
2013-06-14 01:54:00,52.4,33.0,29.45,South,177,1.0,8.0,48,0.00,,,0.00,0,weatherlink.com 1.10,2013-06-14 07:54:00,
2013-06-14 02:09:00,52.0,33.0,29.44,WNW,300,5.0,7.0,48,0.00,,,0.00,0,weatherlink.com 1.10,2013-06-14 08:09:00,
2013-06-14 02:24:00,53.1,32.0,29.44,SSW,206,2.0,13.0,45,0.00,,,0.00,0,weatherlink.com 1.10,2013-06-14 08:24:00,
2013-06-14 02:39:00,52.9,33.0,29.44,SSE,152,10.0,12.0,47,0.00,,,0.00,0,weatherlink.com 1.10,2013-06-14 08:39:00,
2013-06-14 02:54:00,52.1,33.0,29.43,SE,134,7.0,13.0,48,0.00,,,0.00,0,weatherlink.com 1.10,2013-06-14 08:54:00,
2013-06-14 03:09:00,51.6,33.0,29.42,SSW,205,7.0,13.0,50,0.00,,,0.00,0,weatherlink.com 1.10,2013-06-14 09:09:00,
2013-06-14 03:24:00,51.6,33.0,29.43,SSE,164,5.0,13.0,50,0.00,,,0.00,0,weatherlink.com 1.10,2013-06-14 09:24:00,
2013-06-14 03:39:00,51.8,32.0,29.43,SE,144,8.0,14.0,48,0.00,,,0.00,0,weatherlink.com 1.10,2013-06-14 09:39:00,
2013-06-14 03:54:00,51.5,33.0,29.43,ESE,119,4.0,8.0,49,0.00,,,0.00,0,weatherlink.com 1.10,2013-06-14 09:54:00,
2013-06-14 04:09:00,50.7,32.0,29.43,SE,146,0.0,5.0,50,0.00,,,0.00,0,weatherlink.com 1.10,2013-06-14 10:09:00,
2013-06-14 04:24:00,49.6,33.0,29.44,SE,143,3.0,5.0,53,0.00,,,0.00,0,weatherlink.com 1.10,2013-06-14 10:24:00,
2013-06-14 04:39:00,48.9,32.0,29.44,SE,144,4.0,7.0,53,0.00,,,0.00,0,weatherlink.com 1.10,2013-06-14 10:39:00,
2013-06-14 04:54:00,49.1,32.0,29.44,SSE,149,1.0,6.0,53,0.00,,,0.00,0,weatherlink.com 1.10,2013-06-14 10:54:00,
2013-06-14 05:09:00,49.1,32.0,29.44,SE,137,3.0,7.0,53,0.00,,,0.00,0,weatherlink.com 1.10,2013-06-14 11:09:00,
2013-06-14 05:24:00,49.0,32.0,29.44,SSE,161,1.0,6.0,53,0.00,,,0.00,0,weatherlink.com 1.10,2013-06-14 11:24:00,
2013-06-14 05:39:00,49.1,33.0,29.44,South,184,1.0,5.0,54,0.00,,,0.00,0,weatherlink.com 1.10,2013-06-14 11:39:00,
2013-06-14 05:54:00,49.1,33.0,29.45,South,173,2.0,5.0,54,0.00,,,0.00,7,weatherlink.com 1.10,2013-06-14 11:54:00,
2013-06-14 06:09:00,49.0,33.0,29.45,SSE,164,2.0,5.0,55,0.00,,,0.00,19,weatherlink.com 1.10,2013-06-14 12:09:00,
2013-06-14 06:24:00,49.2,33.0,29.46,SSE,166,1.0,6.0,54,0.00,,,0.00,21,weatherlink.com 1.10,2013-06-14 12:24:00,
2013-06-14 06:39:00,49.9,33.0,29.46,SSE,151,1.0,5.0,53,0.00,,,0.00,28,weatherlink.com 1.10,2013-06-14 12:39:00,
2013-06-14 06:54:00,50.1,33.0,29.46,SSE,160,0.0,5.0,53,0.00,,,0.00,46,weatherlink.com 1.10,2013-06-14 12:54:00,
2013-06-14 07:09:00,51.7,34.0,29.46,SE,139,2.0,4.0,52,0.00,,,0.00,148,weatherlink.com 1.10,2013-06-14 13:09:00,
2013-06-14 07:24:00,54.9,35.0,29.46,SSE,149,3.0,8.0,47,0.00,,,0.00,186,weatherlink.com 1.10,2013-06-14 13:24:00,
2013-06-14 07:39:00,56.4,35.0,29.46,SSE,153,0.0,8.0,45,0.00,,,0.00,260,weatherlink.com 1.10,2013-06-14 13:39:00,
2013-06-14 07:54:00,57.0,36.0,29.46,SSE,161,0.0,8.0,46,0.00,,,0.00,315,weatherlink.com 1.10,2013-06-14 13:54:00,
2013-06-14 08:10:00,58.4,36.0,29.46,SSW,196,1.0,11.0,43,0.00,,,0.00,388,weatherlink.com 1.10,2013-06-14 14:10:00,
2013-06-14 08:25:00,60.2,35.0,29.46,West,269,0.0,7.0,39,0.00,,,0.00,380,weatherlink.com 1.10,2013-06-14 14:25:00,
2013-06-14 08:40:00,61.2,34.0,29.46,WNW,284,3.0,12.0,36,0.00,,,0.00,497,weatherlink.com 1.10,2013-06-14 14:40:00,
2013-06-14 08:55:00,62.0,32.0,29.46,NW,305,0.0,12.0,33,0.00,,,0.00,564,weatherlink.com 1.10,2013-06-14 14:55:00,
2013-06-14 09:10:00,61.8,33.0,29.46,SW,220,1.0,8.0,34,0.00,,,0.00,462,weatherlink.com 1.10,2013-06-14 15:10:00,
2013-06-14 09:25:00,60.7,33.0,29.46,West,265,3.0,11.0,35,0.00,,,0.00,415,weatherlink.com 1.10,2013-06-14 15:25:00,
2013-06-14 09:40:00,61.9,34.0,29.46,SSE,153,4.0,9.0,35,0.00,,,0.00,668,weatherlink.com 1.10,2013-06-14 15:40:00,
2013-06-14 09:55:00,64.5,31.0,29.45,South,189,3.0,11.0,28,0.00,,,0.00,396,weatherlink.com 1.10,2013-06-14 15:55:00,
2013-06-14 10:10:00,65.6,29.0,29.45,NNW,339,2.0,14.0,25,0.00,,,0.00,780,weatherlink.com 1.10,2013-06-14 16:10:00,
2013-06-14 10:25:00,66.3,27.0,29.45,WNW,302,4.0,14.0,23,0.00,,,0.00,656,weatherlink.com 1.10,2013-06-14 16:25:00,
2013-06-14 10:40:00,67.1,28.0,29.45,NW,304,2.0,14.0,23,0.00,,,0.00,772,weatherlink.com 1.10,2013-06-14 16:40:00,
2013-06-14 10:55:00,67.2,29.0,29.45,WNW,286,4.0,16.0,24,0.00,,,0.00,856,weatherlink.com 1.10,2013-06-14 16:55:00,
2013-06-14 11:10:00,68.4,29.0,29.45,WNW,300,1.0,13.0,23,0.00,,,0.00,921,weatherlink.com 1.10,2013-06-14 17:10:00,
2013-06-14 11:25:00,69.9,28.0,29.45,SSW,193,1.0,15.0,21,0.00,,,0.00,932,weatherlink.com 1.10,2013-06-14 17:25:00,
2013-06-14 11:40:00,70.7,28.0,29.45,NW,326,5.0,22.0,20,0.00,,,0.00,956,weatherlink.com 1.10,2013-06-14 17:40:00,
2013-06-14 11:55:00,71.6,30.0,29.45,WSW,255,4.0,13.0,21,0.00,,,0.00,1016,weatherlink.com 1.10,2013-06-14 17:55:00,
2013-06-14 12:10:00,72.4,26.0,29.44,West,271,9.0,12.0,18,0.00,,,0.00,1056,weatherlink.com 1.10,2013-06-14 18:10:00,
2013-06-14 12:25:00,73.1,24.0,29.44,SW,219,2.0,9.0,16,0.00,,,0.00,193,weatherlink.com 1.10,2013-06-14 18:25:00,
2013-06-14 12:40:00,68.5,25.0,29.45,South,186,2.0,8.0,19,0.00,,,0.00,292,weatherlink.com 1.10,2013-06-14 18:40:00,
2013-06-14 12:55:00,69.4,28.0,29.45,SE,140,5.0,13.0,21,0.00,,,0.00,322,weatherlink.com 1.10,2013-06-14 18:55:00,
2013-06-14 13:10:00,64.7,32.0,29.45,ESE,115,14.0,16.0,29,0.00,,,0.00,104,weatherlink.com 1.10,2013-06-14 19:10:00,
2013-06-14 13:25:00,63.2,32.0,29.45,SSE,161,9.0,11.0,31,0.00,,,0.00,707,weatherlink.com 1.10,2013-06-14 19:25:00,
2013-06-14 13:40:00,64.0,30.0,29.45,South,173,6.0,12.0,28,0.00,,,0.00,60,weatherlink.com 1.10,2013-06-14 19:40:00,
2013-06-14 13:55:00,61.8,35.0,29.46,South,178,5.0,11.0,37,0.00,,,0.00,60,weatherlink.com 1.10,2013-06-14 19:55:00,
2013-06-14 14:10:00,56.9,34.0,29.45,SSE,156,7.0,11.0,43,0.00,,,0.00,70,weatherlink.com 1.10,2013-06-14 20:10:00,
2013-06-14 14:25:00,57.5,32.0,29.45,SSE,153,7.0,8.0,38,0.00,,,0.00,104,weatherlink.com 1.10,2013-06-14 20:25:00,
2013-06-14 14:40:00,61.2,32.0,29.44,SE,144,7.0,10.0,33,0.00,,,0.00,425,weatherlink.com 1.10,2013-06-14 20:40:00,
2013-06-14 14:55:00,64.9,32.0,29.44,East,80,7.0,13.0,29,0.00,,,0.00,536,weatherlink.com 1.10,2013-06-14 20:55:00,
2013-06-14 15:10:00,65.2,31.0,29.44,East,92,7.0,10.0,28,0.00,,,0.00,295,weatherlink.com 1.10,2013-06-14 21:10:00,
2013-06-14 15:25:00,67.4,30.0,29.43,SE,132,11.0,11.0,25,0.00,,,0.00,276,weatherlink.com 1.10,2013-06-14 21:25:00,
2013-06-14 15:40:00,67.7,28.0,29.42,SSE,162,8.0,12.0,23,0.00,,,0.00,960,weatherlink.com 1.10,2013-06-14 21:40:00,
2013-06-14 15:55:00,70.2,31.0,29.42,WSW,237,1.0,9.0,23,0.00,,,0.00,279,weatherlink.com 1.10,2013-06-14 21:55:00,
2013-06-14 16:10:00,72.1,29.0,29.41,NW,310,1.0,4.0,20,0.00,,,0.00,221,weatherlink.com 1.10,2013-06-14 22:10:00,
2013-06-14 16:25:00,70.1,27.0,29.41,West,280,5.0,11.0,20,0.00,,,0.00,84,weatherlink.com 1.10,2013-06-14 22:25:00,
2013-06-14 16:41:00,68.0,28.0,29.41,NW,310,4.0,19.0,22,0.00,,,0.00,719,weatherlink.com 1.10,2013-06-14 22:41:00,
2013-06-14 16:56:00,70.1,27.0,29.41,West,281,3.0,9.0,20,0.00,,,0.00,821,weatherlink.com 1.10,2013-06-14 22:56:00,
2013-06-14 17:11:00,74.3,29.0,29.41,WSW,255,3.0,6.0,19,0.00,,,0.00,758,weatherlink.com 1.10,2013-06-14 23:11:00,
2013-06-14 17:26:00,72.5,30.0,29.42,NNE,22,4.0,13.0,21,0.00,,,0.00,204,weatherlink.com 1.10,2013-06-14 23:26:00,
2013-06-14 17:41:00,66.3,32.0,29.40,ESE,110,15.0,15.0,28,0.00,,,0.00,577,weatherlink.com 1.10,2013-06-14 23:41:00,
2013-06-14 17:56:00,64.4,31.0,29.39,East,100,9.0,18.0,29,0.00,,,0.00,571,weatherlink.com 1.10,2013-06-14 23:56:00,
2013-06-14 18:11:00,63.3,31.0,29.41,East,101,6.0,14.0,30,0.00,,,0.00,109,weatherlink.com 1.10,2013-06-15 00:11:00,
2013-06-14 18:26:00,62.2,31.0,29.40,East,88,15.0,19.0,31,0.00,,,0.00,130,weatherlink.com 1.10,2013-06-15 00:26:00,
2013-06-14 18:41:00,61.6,32.0,29.40,ESE,121,12.0,16.0,33,0.00,,,0.00,104,weatherlink.com 1.10,2013-06-15 00:41:00,
2013-06-14 18:56:00,61.2,32.0,29.40,ESE,115,10.0,18.0,34,0.00,,,0.00,79,weatherlink.com 1.10,2013-06-15 00:56:00,
2013-06-14 19:11:00,60.9,33.0,29.40,ESE,116,11.0,21.0,35,0.00,,,0.00,97,weatherlink.com 1.10,2013-06-15 01:11:00,
2013-06-14 19:26:00,61.0,32.0,29.41,East,91,11.0,26.0,34,0.00,,,0.00,88,weatherlink.com 1.10,2013-06-15 01:26:00,
2013-06-14 19:41:00,60.4,32.0,29.41,SE,128,11.0,23.0,34,0.00,,,0.00,69,weatherlink.com 1.10,2013-06-15 01:41:00,
2013-06-14 19:56:00,59.8,32.0,29.41,ESE,109,21.0,26.0,35,0.00,,,0.00,40,weatherlink.com 1.10,2013-06-15 01:56:00,
2013-06-14 20:11:00,56.7,35.0,29.41,SE,139,11.0,27.0,44,0.00,,,0.00,19,weatherlink.com 1.10,2013-06-15 02:11:00,
2013-06-14 20:26:00,54.7,35.0,29.42,ESE,121,12.0,24.0,48,0.00,,,0.00,7,weatherlink.com 1.10,2013-06-15 02:26:00,
2013-06-14 20:41:00,53.9,35.0,29.42,ESE,111,10.0,21.0,49,0.00,,,0.00,0,weatherlink.com 1.10,2013-06-15 02:41:00,
2013-06-14 20:56:00,53.2,36.0,29.43,SE,136,20.0,26.0,52,0.00,,,0.00,0,weatherlink.com 1.10,2013-06-15 02:56:00,
2013-06-14 21:11:00,52.6,36.0,29.43,ESE,117,15.0,25.0,54,0.00,,,0.00,0,weatherlink.com 1.10,2013-06-15 03:11:00,
2013-06-14 21:26:00,51.9,36.0,29.44,East,99,11.0,23.0,56,0.00,,,0.00,0,weatherlink.com 1.10,2013-06-15 03:26:00,
2013-06-14 21:41:00,51.3,37.0,29.45,ESE,116,16.0,19.0,58,0.00,,,0.00,0,weatherlink.com 1.10,2013-06-15 03:41:00,
2013-06-14 21:56:00,50.8,37.0,29.45,East,96,11.0,18.0,59,0.00,,,0.00,0,weatherlink.com 1.10,2013-06-15 03:56:00,
2013-06-14 22:11:00,50.4,36.0,29.45,East,95,17.0,19.0,59,0.00,,,0.00,0,weatherlink.com 1.10,2013-06-15 04:11:00,
2013-06-14 22:26:00,50.0,37.0,29.46,ESE,104,14.0,21.0,61,0.00,,,0.00,0,weatherlink.com 1.10,2013-06-15 04:26:00,
2013-06-14 22:41:00,49.7,37.0,29.46,ESE,111,15.0,23.0,62,0.00,,,0.00,0,weatherlink.com 1.10,2013-06-15 04:41:00,
2013-06-14 22:56:00,49.5,37.0,29.46,ESE,107,15.0,19.0,62,0.00,,,0.00,0,weatherlink.com 1.10,2013-06-15 04:56:00,
2013-06-14 23:11:00,49.2,37.0,29.46,East,94,10.0,19.0,63,0.00,,,0.00,0,weatherlink.com 1.10,2013-06-15 05:11:00,
2013-06-14 23:26:00,49.0,38.0,29.46,ESE,121,9.0,16.0,65,0.00,,,0.00,0,weatherlink.com 1.10,2013-06-15 05:26:00,
2013-06-14 23:41:00,49.4,38.0,29.46,East,90,9.0,12.0,64,0.00,,,0.00,0,weatherlink.com 1.10,2013-06-15 05:41:00,
2013-06-14 23:56:00,49.3,37.0,29.46,ESE,109,8.0,13.0,64,0.00,,,0.00,0,weatherlink.com 1.10,2013-06-15 05:56:00,